Time;durP1;ratioP1;P1;durP2;ratioP2;P2;SDS_P1;SDS_P2;PMS_P1;PMS_P2;Temp;Humidity;BMP_temperature;BMP_pressure;BME280_temperature;BME280_humidity;BME280_pressure;Samples;Min_cycle;Max_cycle;Signal;HPM_P1;HPM_P2
2021/12/14 00:02:00;;;;;;;9.80;7.82;;;6.90;99.90;;;;;;4954005;28;20020;-86
2021/12/14 00:04:32;;;;;;;8.32;7.25;;;6.90;99.90;;;;;;4937486;29;20080;-82
2021/12/14 00:07:02;;;;;;;9.32;7.93;;;6.90;99.90;;;;;;4959433;29;20039;-86
2021/12/14 00:09:34;;;;;;;9.65;7.60;;;6.90;99.90;;;;;;4955315;29;20226;-86
2021/12/14 00:17:30;;;;;;;9.32;7.63;;;6.90;99.90;;;;;;4955698;29;20055;-82
2021/12/14 00:19:59;;;;;;;11.25;8.00;;;6.90;99.90;;;;;;4948878;29;20020;-84
2021/12/14 00:22:37;;;;;;;10.00;7.72;;;6.90;99.90;;;;;;4933935;28;20028;-80
2021/12/14 00:25:04;;;;;;;;;;;6.90;99.90;;;;;;4943133;29;20138;-85
2021/12/14 00:27:30;;;;;;;9.10;7.13;;;6.90;99.90;;;;;;4953764;29;20728;-88
2021/12/14 00:29:59;;;;;;;9.60;7.20;;;6.90;99.90;;;;;;4935942;29;20050;-88
2021/12/14 00:32:31;;;;;;;9.13;7.88;;;6.90;99.90;;;;;;4954488;28;20035;-80
2021/12/14 00:35:02;;;;;;;9.93;7.82;;;7.00;99.90;;;;;;4941638;29;20028;-85
2021/12/14 00:37:37;;;;;;;9.73;7.75;;;7.00;99.90;;;;;;4947956;29;20027;-80
2021/12/14 00:40:11;;;;;;;9.40;7.55;;;7.00;99.90;;;;;;4949019;29;20050;-88
2021/12/14 00:42:37;;;;;;;11.60;9.10;;;7.00;99.90;;;;;;4950872;29;20026;-84
2021/12/14 00:45:04;;;;;;;8.43;7.43;;;7.00;99.90;;;;;;4932231;29;20090;-87
2021/12/14 00:47:30;;;;;;;9.05;7.78;;;7.00;99.90;;;;;;4930348;29;20062;-88
2021/12/14 00:49:56;;;;;;;10.80;8.38;;;7.00;99.90;;;;;;4941995;29;20015;-81
2021/12/14 00:52:22;;;;;;;8.52;6.55;;;7.00;99.90;;;;;;4934564;29;20027;-80
2021/12/14 00:54:48;;;;;;;8.75;7.13;;;7.00;99.90;;;;;;4936524;28;20023;-76
2021/12/14 00:57:16;;;;;;;9.85;7.95;;;7.00;99.90;;;;;;4943601;29;20082;-77
2021/12/14 00:59:42;;;;;;;9.27;7.78;;;7.00;99.90;;;;;;4938883;29;20023;-83
2021/12/14 01:02:11;;;;;;;11.50;7.60;;;7.00;99.90;;;;;;4949510;28;20027;-76
2021/12/14 01:04:48;;;;;;;9.65;7.53;;;7.00;99.90;;;;;;4951515;29;20012;-84
2021/12/14 01:07:16;;;;;;;10.40;7.78;;;7.00;99.90;;;;;;4944044;28;20054;-81
2021/12/14 01:09:49;;;;;;;9.77;7.95;;;7.00;99.90;;;;;;4933156;29;20045;-84
2021/12/14 01:12:28;;;;;;;11.45;8.43;;;7.10;99.90;;;;;;4949390;29;20038;-80
2021/12/14 01:15:51;;;;;;;10.82;8.55;;;7.10;99.90;;;;;;4935073;29;20062;-83
2021/12/14 01:18:01;;;;;;;11.02;8.32;;;7.10;99.90;;;;;;4937395;28;20045;-77
2021/12/14 01:20:32;;;;;;;9.75;8.70;;;7.10;99.90;;;;;;4934184;29;20126;-85
2021/12/14 01:23:02;;;;;;;9.68;7.95;;;7.00;99.90;;;;;;4947798;29;20032;-87
2021/12/14 01:25:37;;;;;;;9.05;7.82;;;7.00;99.90;;;;;;4933817;29;20147;-88
2021/12/14 01:28:09;;;;;;;11.93;9.18;;;7.10;99.90;;;;;;4926638;29;20035;-87
2021/12/14 01:31:07;;;;;;;10.02;7.60;;;7.10;99.90;;;;;;4938926;29;20028;-79
2021/12/14 01:33:35;;;;;;;11.13;8.13;;;7.10;99.90;;;;;;4927102;29;20023;-86
2021/12/14 01:36:08;;;;;;;9.32;7.72;;;7.10;99.90;;;;;;4940936;29;20058;-82
2021/12/14 01:38:46;;;;;;;8.82;7.18;;;7.10;99.90;;;;;;4930059;28;20074;-78
2021/12/14 01:41:14;;;;;;;10.05;8.48;;;7.10;99.90;;;;;;4928036;29;20285;-80
2021/12/14 01:43:51;;;;;;;9.80;8.20;;;7.10;99.90;;;;;;4919597;29;20039;-86
2021/12/14 01:46:17;;;;;;;10.15;8.18;;;7.10;99.90;;;;;;4929489;29;20034;-82
2021/12/14 01:48:43;;;;;;;8.73;7.57;;;7.10;99.90;;;;;;4949045;28;20060;-85
2021/12/14 01:51:11;;;;;;;8.40;7.40;;;7.20;99.90;;;;;;4928228;29;20031;-78
2021/12/14 01:53:40;;;;;;;10.48;8.13;;;7.10;99.90;;;;;;4940238;29;20023;-85
2021/12/14 01:56:10;;;;;;;8.40;7.45;;;7.10;99.90;;;;;;4945017;29;20031;-83
2021/12/14 01:58:43;;;;;;;7.38;6.30;;;7.10;99.90;;;;;;4943156;29;20059;-84
2021/12/14 02:01:19;;;;;;;9.13;7.18;;;7.10;99.90;;;;;;4929124;29;20028;-76
2021/12/14 02:03:52;;;;;;;10.60;7.70;;;7.10;99.90;;;;;;4949549;28;20033;-81
2021/12/14 02:06:24;;;;;;;8.50;6.85;;;7.10;99.90;;;;;;4947685;29;20047;-82
2021/12/14 02:09:13;;;;;;;10.23;7.80;;;7.10;99.90;;;;;;4929612;29;20038;-86
2021/12/14 02:11:50;;;;;;;8.50;6.72;;;7.20;99.90;;;;;;4942996;28;20069;-84
2021/12/14 02:14:18;;;;;;;8.60;6.25;;;7.10;99.90;;;;;;4932117;29;20023;-85
2021/12/14 02:16:47;;;;;;;10.00;7.30;;;7.20;99.90;;;;;;4931726;29;20035;-82
2021/12/14 02:19:14;;;;;;;10.82;8.07;;;7.20;99.90;;;;;;4934309;29;20218;-84
2021/12/14 02:21:42;;;;;;;9.48;7.35;;;7.20;99.90;;;;;;4933073;28;20023;-87
2021/12/14 02:24:09;;;;;;;8.03;6.40;;;7.20;99.90;;;;;;4943893;29;20034;-88
2021/12/14 02:26:39;;;;;;;9.07;6.88;;;7.20;99.90;;;;;;4944444;29;20388;-84
2021/12/14 02:29:08;;;;;;;10.38;6.85;;;7.20;99.90;;;;;;4924550;29;20042;-82
2021/12/14 02:31:37;;;;;;;8.73;6.68;;;7.20;99.90;;;;;;4924227;29;20034;-80
2021/12/14 02:34:05;;;;;;;;;;;7.20;99.90;;;;;;4933307;28;20404;-87
2021/12/14 02:36:39;;;;;;;10.65;7.35;;;7.20;99.90;;;;;;4944010;29;19906;-85
2021/12/14 02:39:22;;;;;;;8.43;6.75;;;7.20;99.90;;;;;;4943857;29;20199;-80
2021/12/14 02:41:56;;;;;;;9.07;6.95;;;7.20;99.90;;;;;;4937932;29;20039;-89
2021/12/14 02:44:23;;;;;;;8.32;6.65;;;7.20;99.90;;;;;;4937944;29;20023;-84
2021/12/14 02:46:54;;;;;;;9.60;7.45;;;7.20;99.90;;;;;;4936526;29;20315;-87
2021/12/14 02:49:40;;;;;;;9.65;7.35;;;7.20;99.90;;;;;;4944073;29;20019;-86
2021/12/14 02:52:10;;;;;;;9.32;7.50;;;7.20;99.90;;;;;;4940141;29;20027;-87
2021/12/14 02:54:38;;;;;;;10.00;8.13;;;7.20;99.90;;;;;;4937110;29;20254;-89
2021/12/14 02:57:26;;;;;;;8.83;6.93;;;7.20;99.90;;;;;;4942353;28;20047;-78
2021/12/14 02:59:53;;;;;;;8.40;7.22;;;7.30;99.90;;;;;;4926313;29;20027;-87
2021/12/14 03:02:24;;;;;;;9.60;7.35;;;7.30;99.90;;;;;;4938591;29;20063;-88
2021/12/14 03:04:53;;;;;;;8.60;6.75;;;7.20;99.90;;;;;;4931140;28;20030;-85
2021/12/14 03:07:24;;;;;;;7.85;6.57;;;7.20;99.90;;;;;;4941476;28;20044;-88
2021/12/14 03:09:59;;;;;;;8.98;7.00;;;7.20;99.90;;;;;;4948134;29;20066;-84
2021/12/14 03:12:39;;;;;;;8.25;7.00;;;7.20;99.90;;;;;;4938554;29;20241;-83
2021/12/14 03:15:07;;;;;;;9.43;7.25;;;7.20;99.90;;;;;;4953984;29;20831;-78
2021/12/14 03:17:33;;;;;;;;;;;7.20;99.90;;;;;;4950056;28;20032;-88
2021/12/14 03:20:14;;;;;;;9.32;6.82;;;7.20;99.90;;;;;;4955984;29;19902;-81
2021/12/14 03:22:49;;;;;;;9.52;7.50;;;7.20;99.90;;;;;;4927871;29;20035;-87
2021/12/14 03:25:20;;;;;;;8.80;7.18;;;7.20;99.90;;;;;;4947199;29;20095;-80
2021/12/14 03:27:48;;;;;;;10.52;8.23;;;7.20;99.90;;;;;;4946242;28;20039;-88
2021/12/14 03:30:23;;;;;;;9.70;7.60;;;7.20;99.90;;;;;;4945561;29;20028;-78
2021/12/14 03:32:50;;;;;;;10.45;8.50;;;7.20;99.90;;;;;;4942893;29;20071;-88
2021/12/14 03:35:19;;;;;;;9.10;7.50;;;7.30;99.90;;;;;;4938713;29;20067;-81
2021/12/14 03:37:45;;;;;;;;;;;7.30;99.90;;;;;;4934980;28;20022;-77
2021/12/14 03:40:12;;;;;;;10.50;7.68;;;7.30;99.90;;;;;;4954895;29;19915;-79
2021/12/14 03:42:40;;;;;;;11.13;7.63;;;7.30;99.90;;;;;;4956547;29;20322;-88
2021/12/14 03:45:17;;;;;;;8.50;7.47;;;7.30;99.90;;;;;;4936026;29;20047;-82
2021/12/14 03:47:54;;;;;;;12.50;8.07;;;7.30;99.90;;;;;;4948509;29;20031;-85
2021/12/14 03:50:41;;;;;;;11.60;9.00;;;7.30;99.90;;;;;;4943992;28;20086;-85
2021/12/14 03:53:11;;;;;;;9.25;7.63;;;7.30;99.90;;;;;;4948379;29;20215;-85
2021/12/14 03:55:42;;;;;;;9.23;7.68;;;7.30;99.90;;;;;;4947114;29;20027;-84
2021/12/14 03:58:14;;;;;;;8.77;7.68;;;7.30;99.90;;;;;;4930474;29;20034;-82
2021/12/14 04:00:48;;;;;;;8.57;6.88;;;7.30;99.90;;;;;;4931428;29;20043;-87
2021/12/14 04:03:16;;;;;;;11.05;8.07;;;7.30;99.90;;;;;;4953913;29;20098;-76
2021/12/14 04:05:45;;;;;;;8.77;7.38;;;7.30;99.90;;;;;;4956775;29;20023;-83
2021/12/14 04:08:12;;;;;;;10.48;7.97;;;7.30;99.90;;;;;;4946828;28;20045;-79
2021/12/14 04:10:40;;;;;;;9.63;7.13;;;7.30;99.90;;;;;;4936775;29;20038;-87
2021/12/14 04:13:07;;;;;;;8.30;6.82;;;7.20;99.90;;;;;;4943824;29;20026;-87
2021/12/14 04:15:33;;;;;;;8.82;6.88;;;7.30;99.90;;;;;;4931703;28;20350;-89
2021/12/14 04:17:59;;;;;;;9.68;6.10;;;7.20;99.90;;;;;;4944709;29;20031;-85
2021/12/14 04:20:32;;;;;;;7.95;6.88;;;7.20;99.90;;;;;;4924863;29;20337;-82
2021/12/14 04:22:59;;;;;;;8.60;6.85;;;7.30;99.90;;;;;;4937788;29;20023;-84
2021/12/14 04:25:29;;;;;;;9.00;7.10;;;7.30;99.90;;;;;;4935346;29;20437;-79
2021/12/14 04:27:56;;;;;;;8.05;6.45;;;7.30;99.90;;;;;;4925502;29;20027;-77
2021/12/14 04:30:26;;;;;;;9.32;7.15;;;7.30;99.90;;;;;;4944329;29;20027;-85
2021/12/14 04:32:58;;;;;;;8.50;6.50;;;7.30;99.90;;;;;;4929315;29;20310;-88
2021/12/14 04:35:25;;;;;;;8.15;6.43;;;7.30;99.90;;;;;;4943497;29;20039;-84
2021/12/14 04:37:54;;;;;;;9.57;6.90;;;7.30;99.90;;;;;;4950246;28;20361;-87
2021/12/14 04:54:03;;;;;;;8.50;6.63;;;7.50;99.90;;;;;;4944022;28;20107;-81
2021/12/14 04:56:35;;;;;;;7.18;6.18;;;7.40;99.90;;;;;;4923557;29;20042;-86
2021/12/14 04:59:12;;;;;;;8.07;6.40;;;7.40;99.90;;;;;;4926366;29;20091;-86
2021/12/14 05:01:41;;;;;;;7.40;6.43;;;7.40;99.90;;;;;;4938308;29;20022;-82
2021/12/14 05:04:10;;;;;;;8.98;6.40;;;7.40;99.90;;;;;;4924238;28;20294;-86
2021/12/14 05:09:29;;;;;;;6.53;5.85;;;7.40;99.90;;;;;;4942411;28;20011;-79
2021/12/14 05:12:04;;;;;;;5.63;4.75;;;7.40;99.90;;;;;;4938744;29;20038;-86
2021/12/14 05:14:30;;;;;;;7.38;5.80;;;7.50;99.90;;;;;;4883134;29;1221297;-88
2021/12/14 05:16:59;;;;;;;7.30;5.50;;;7.50;99.90;;;;;;4938620;29;20199;-88
2021/12/14 05:19:28;;;;;;;6.18;4.65;;;7.50;99.90;;;;;;4950946;29;20086;-83
2021/12/14 05:22:00;;;;;;;5.35;4.75;;;7.60;99.90;;;;;;4944070;29;20618;-81
2021/12/14 05:24:27;;;;;;;5.28;4.57;;;7.60;99.90;;;;;;4929514;29;20027;-87
2021/12/14 05:27:16;;;;;;;5.72;5.03;;;7.70;99.90;;;;;;4929876;29;20063;-89
2021/12/14 05:29:43;;;;;;;6.20;4.68;;;7.60;99.90;;;;;;4941576;29;20027;-88
2021/12/14 05:32:10;;;;;;;5.10;4.60;;;7.60;99.90;;;;;;4944496;29;20066;-82
2021/12/14 05:34:38;;;;;;;6.25;4.97;;;7.70;99.90;;;;;;4929123;29;20041;-82
2021/12/14 05:37:06;;;;;;;6.22;4.93;;;7.60;99.90;;;;;;4931716;28;20135;-81
2021/12/14 05:39:47;;;;;;;4.50;4.00;;;7.60;99.90;;;;;;4950255;28;20026;-89
2021/12/14 05:45:11;;;;;;;8.20;5.57;;;7.60;99.90;;;;;;4945082;29;20393;-89
2021/12/14 05:47:57;;;;;;;8.50;4.95;;;7.60;99.90;;;;;;4930241;28;20027;-82
2021/12/14 05:50:35;;;;;;;5.70;4.78;;;7.60;99.90;;;;;;4941798;29;20035;-89
2021/12/14 05:53:02;;;;;;;6.00;5.10;;;7.60;99.90;;;;;;4929489;29;20182;-83
2021/12/14 05:55:33;;;;;;;6.47;4.78;;;7.60;99.90;;;;;;4943693;29;20055;-85
2021/12/14 05:58:01;;;;;;;9.35;5.80;;;7.60;99.90;;;;;;4928199;29;20465;-89
2021/12/14 06:00:29;;;;;;;5.57;4.45;;;7.60;99.90;;;;;;4945237;28;20031;-90
2021/12/14 06:02:55;;;;;;;5.78;5.05;;;7.60;99.90;;;;;;4929866;29;20031;-80
2021/12/14 06:05:23;;;;;;;6.45;4.88;;;7.60;99.90;;;;;;4944725;29;20058;-88
2021/12/14 06:07:50;;;;;;;6.68;5.38;;;7.60;99.90;;;;;;4947579;29;20038;-86
2021/12/14 06:10:20;;;;;;;6.43;5.63;;;7.60;99.90;;;;;;4925523;28;20110;-79
2021/12/14 06:12:45;;;;;;;6.40;5.22;;;7.60;99.90;;;;;;4943255;29;20024;-83
2021/12/14 06:15:21;;;;;;;7.00;5.68;;;7.60;99.90;;;;;;4920642;29;20358;-88
2021/12/14 06:17:48;;;;;;;8.07;6.25;;;7.60;99.90;;;;;;4915676;29;20054;-87
2021/12/14 06:20:20;;;;;;;7.32;5.68;;;7.60;99.90;;;;;;4903745;29;20083;-77
2021/12/14 06:22:48;;;;;;;7.70;5.75;;;7.60;99.90;;;;;;4904290;29;20028;-80
2021/12/14 06:25:21;;;;;;;6.50;5.47;;;7.60;99.90;;;;;;4902182;29;20203;-78
2021/12/14 06:27:48;;;;;;;7.32;5.57;;;7.60;99.90;;;;;;4904172;29;20028;-84
2021/12/14 06:30:24;;;;;;;8.10;6.20;;;7.60;99.90;;;;;;4904094;29;20067;-71
2021/12/14 06:33:13;;;;;;;7.03;5.53;;;7.60;99.90;;;;;;4902655;29;20032;-81
2021/12/14 06:35:46;;;;;;;13.13;9.70;;;7.70;99.90;;;;;;4903210;29;20038;-87
2021/12/14 06:40:43;;;;;;;49.50;30.02;;;7.70;99.90;;;;;;4902616;29;20279;-83
2021/12/14 06:43:13;;;;;;;98.10;53.63;;;7.70;99.90;;;;;;4904653;29;20013;-86
2021/12/14 06:45:43;;;;;;;12.65;8.20;;;7.70;99.90;;;;;;4905003;29;20032;-83
2021/12/14 06:48:21;;;;;;;7.53;5.65;;;7.70;99.90;;;;;;4899137;29;20044;-86
2021/12/14 06:50:51;;;;;;;6.15;5.47;;;7.70;99.90;;;;;;4901374;29;20039;-85
2021/12/14 06:53:19;;;;;;;8.43;6.22;;;7.70;99.90;;;;;;4905637;29;20329;-77
2021/12/14 06:55:45;;;;;;;;;;;7.70;99.90;;;;;;4901685;29;20091;-77
2021/12/14 06:58:21;;;;;;;7.75;5.88;;;7.80;99.90;;;;;;4899274;29;19953;-86
2021/12/14 07:00:52;;;;;;;7.38;5.60;;;7.80;99.90;;;;;;4913861;29;20037;-84
2021/12/14 07:03:18;;;;;;;6.93;5.43;;;7.80;99.90;;;;;;4906405;29;20344;-77
2021/12/14 07:05:48;;;;;;;9.90;6.07;;;7.80;99.90;;;;;;4915428;29;20131;-73
2021/12/14 07:08:26;;;;;;;9.02;5.90;;;7.80;99.90;;;;;;4916629;29;20131;-78
2021/12/14 07:10:53;;;;;;;7.97;6.00;;;7.80;99.90;;;;;;4911424;29;20048;-89
2021/12/14 07:13:34;;;;;;;6.75;5.53;;;7.80;99.90;;;;;;4905197;29;20031;-89
2021/12/14 07:16:03;;;;;;;7.70;5.65;;;7.80;99.90;;;;;;4936650;28;20106;-83
2021/12/14 07:18:32;;;;;;;8.20;6.50;;;7.80;99.90;;;;;;4950832;29;20055;-89
2021/12/14 07:20:58;;;;;;;9.45;6.72;;;7.80;99.90;;;;;;4952452;29;20098;-86
2021/12/14 07:23:32;;;;;;;8.95;6.53;;;7.80;99.90;;;;;;4939768;29;20087;-82
2021/12/14 07:25:59;;;;;;;11.73;6.70;;;7.80;99.90;;;;;;4950818;28;20030;-85
2021/12/14 07:28:30;;;;;;;11.18;7.03;;;7.80;99.90;;;;;;4947651;29;20094;-88
2021/12/14 07:31:02;;;;;;;10.82;8.35;;;7.80;99.90;;;;;;4953670;29;20034;-88
2021/12/14 07:33:34;;;;;;;10.27;7.40;;;7.80;99.90;;;;;;4933319;29;20020;-86
2021/12/14 07:36:03;;;;;;;10.68;7.45;;;7.80;99.90;;;;;;4932178;28;20090;-86
2021/12/14 07:38:34;;;;;;;;;;;7.80;99.90;;;;;;4926308;29;20051;-88
2021/12/14 07:41:14;;;;;;;9.48;6.72;;;7.80;99.90;;;;;;4943386;29;19914;-89
2021/12/14 07:44:02;;;;;;;9.95;6.93;;;7.80;99.90;;;;;;4948918;29;20020;-84
2021/12/14 07:46:38;;;;;;;10.73;6.47;;;7.80;99.90;;;;;;4957756;28;20043;-80
2021/12/14 07:49:25;;;;;;;10.00;7.30;;;7.80;99.90;;;;;;4947835;28;20116;-78
2021/12/14 07:51:56;;;;;;;8.45;5.97;;;7.80;99.90;;;;;;4953338;29;20037;-87
2021/12/14 07:54:29;;;;;;;10.98;7.65;;;7.90;99.90;;;;;;4935106;29;20027;-88
2021/12/14 07:57:06;;;;;;;11.10;7.03;;;7.90;99.90;;;;;;4962501;29;20102;-79
2021/12/14 07:59:41;;;;;;;10.18;6.85;;;7.90;99.90;;;;;;4955398;28;20024;-85
2021/12/14 08:02:10;;;;;;;9.30;6.60;;;7.90;99.90;;;;;;4934890;29;20028;-80
2021/12/14 08:04:37;;;;;;;10.07;7.15;;;7.90;99.90;;;;;;4963795;29;20357;-88
2021/12/14 08:07:03;;;;;;;10.60;7.03;;;7.90;99.90;;;;;;4949796;29;20053;-87
2021/12/14 08:09:51;;;;;;;10.00;6.57;;;7.90;99.90;;;;;;4953982;28;20032;-80
2021/12/14 08:12:43;;;;;;;9.50;6.97;;;7.90;99.90;;;;;;4953317;28;20024;-77
2021/12/14 08:15:37;;;;;;;9.73;7.25;;;7.90;99.90;;;;;;4966359;28;20059;-88
2021/12/14 08:18:27;;;;;;;9.52;6.32;;;7.90;99.90;;;;;;4939630;29;20067;-80
2021/12/14 08:20:58;;;;;;;8.07;5.97;;;8.00;99.90;;;;;;4962764;28;20027;-80
2021/12/14 08:23:24;;;;;;;7.50;5.72;;;8.00;99.90;;;;;;4962998;29;20042;-77
2021/12/14 08:25:55;;;;;;;9.35;6.50;;;8.00;99.90;;;;;;4952744;29;20047;-78
2021/12/14 08:28:21;;;;;;;10.55;6.57;;;8.00;99.90;;;;;;4952546;29;20091;-78
2021/12/14 08:31:03;;;;;;;10.15;6.57;;;8.10;99.90;;;;;;4938752;29;20027;-79
2021/12/14 08:33:30;;;;;;;10.90;7.40;;;8.10;99.90;;;;;;4952319;29;20045;-85
2021/12/14 08:36:02;;;;;;;9.80;6.80;;;8.10;99.90;;;;;;4945982;29;20019;-86
2021/12/14 08:38:31;;;;;;;8.18;6.55;;;8.10;99.90;;;;;;4934722;29;20137;-83
2021/12/14 08:41:01;;;;;;;11.57;6.55;;;8.10;99.90;;;;;;4953936;28;20095;-82
2021/12/14 08:43:33;;;;;;;8.55;6.07;;;8.10;99.90;;;;;;4958836;29;20024;-83
2021/12/14 08:46:04;;;;;;;7.20;5.60;;;8.10;99.90;;;;;;4932761;29;20035;-89
2021/12/14 08:48:40;;;;;;;9.13;6.07;;;8.10;99.90;;;;;;4939891;29;20107;-83
2021/12/14 08:51:14;;;;;;;12.02;6.50;;;8.10;99.90;;;;;;4948024;29;20023;-85
2021/12/14 08:54:03;;;;;;;9.10;5.20;;;8.10;99.90;;;;;;4949882;29;20302;-81
2021/12/14 08:56:33;;;;;;;7.05;5.05;;;8.10;99.90;;;;;;4950320;29;20090;-89
2021/12/14 08:59:00;;;;;;;7.85;5.47;;;8.10;99.90;;;;;;4959814;29;20041;-90
2021/12/14 09:01:29;;;;;;;6.63;5.43;;;8.10;99.90;;;;;;4953852;29;20604;-89
2021/12/14 09:04:04;;;;;;;8.07;5.97;;;8.10;99.90;;;;;;4938320;29;20377;-88
2021/12/14 09:06:36;;;;;;;7.05;5.28;;;8.20;99.90;;;;;;4945953;28;20294;-82
2021/12/14 09:09:07;;;;;;;10.02;6.25;;;8.20;99.90;;;;;;4946070;29;20036;-88
2021/12/14 09:11:36;;;;;;;7.97;5.72;;;8.30;99.90;;;;;;4944676;29;20274;-81
2021/12/14 09:14:03;;;;;;;;;;;8.30;99.90;;;;;;4946914;28;20023;-88
2021/12/14 09:16:30;;;;;;;7.85;5.70;;;8.30;99.90;;;;;;4942486;29;20145;-88
2021/12/14 09:19:02;;;;;;;7.00;4.73;;;8.30;99.90;;;;;;4935660;29;20035;-89
2021/12/14 09:21:41;;;;;;;6.90;5.38;;;8.30;99.90;;;;;;4929884;29;20315;-87
2021/12/14 09:24:14;;;;;;;7.65;6.28;;;8.30;99.90;;;;;;4940965;28;20026;-87
2021/12/14 09:26:43;;;;;;;8.13;5.57;;;8.30;99.90;;;;;;4941449;28;20039;-82
2021/12/14 09:29:13;;;;;;;6.55;5.25;;;8.30;99.90;;;;;;4926903;29;20051;-89
2021/12/14 09:31:41;;;;;;;6.53;5.18;;;8.30;99.90;;;;;;4936905;29;20078;-88
2021/12/14 09:34:10;;;;;;;6.05;4.45;;;8.30;99.90;;;;;;4945981;29;20019;-86
2021/12/14 09:36:36;;;;;;;;;;;8.30;99.90;;;;;;4935656;29;20114;-88
2021/12/14 09:39:17;;;;;;;9.40;5.85;;;8.30;99.90;;;;;;4939867;29;19902;-86
2021/12/14 09:41:45;;;;;;;10.35;5.65;;;8.30;99.90;;;;;;4933236;29;20328;-88
2021/12/14 09:44:12;;;;;;;;;;;8.30;99.90;;;;;;4942065;29;20047;-88
2021/12/14 09:46:38;;;;;;;8.63;5.55;;;8.30;99.90;;;;;;4940226;28;19915;-87
2021/12/14 09:49:07;;;;;;;8.38;5.80;;;8.30;99.90;;;;;;4951562;29;20131;-86
2021/12/14 09:51:46;;;;;;;8.57;5.95;;;8.30;99.90;;;;;;4944387;29;20321;-87
2021/12/14 09:54:16;;;;;;;7.78;6.10;;;8.30;99.90;;;;;;4936148;29;20024;-88
2021/12/14 09:56:49;;;;;;;7.78;5.97;;;8.40;99.90;;;;;;4934575;28;20099;-88
2021/12/14 09:59:15;;;;;;;7.07;5.65;;;8.30;99.90;;;;;;4941839;29;20296;-88
2021/12/14 10:01:58;;;;;;;10.55;6.65;;;8.40;99.90;;;;;;4945480;29;20022;-80
2021/12/14 10:04:28;;;;;;;7.20;6.05;;;8.30;99.90;;;;;;4942586;29;20031;-81
2021/12/14 10:06:56;;;;;;;8.10;5.97;;;8.40;99.90;;;;;;4943659;29;20045;-75
2021/12/14 10:09:27;;;;;;;7.50;5.28;;;8.50;99.90;;;;;;4943667;28;20035;-71
2021/12/14 10:12:07;;;;;;;7.25;5.38;;;8.60;99.90;;;;;;4947735;29;20043;-85
2021/12/14 10:14:37;;;;;;;10.07;6.88;;;8.80;99.90;;;;;;4946413;28;20412;-76
2021/12/14 10:17:08;;;;;;;8.65;6.85;;;9.00;99.90;;;;;;4927762;29;20031;-82
2021/12/14 10:19:35;;;;;;;7.35;5.65;;;9.20;99.90;;;;;;4928312;29;20023;-77
2021/12/14 10:22:06;;;;;;;8.13;4.82;;;9.10;99.90;;;;;;4928978;29;20054;-83
2021/12/14 10:24:33;;;;;;;8.77;6.07;;;9.10;99.90;;;;;;4929068;29;20031;-82
2021/12/14 10:27:07;;;;;;;9.98;6.15;;;9.00;99.90;;;;;;4943381;29;20047;-81
2021/12/14 10:29:34;;;;;;;7.63;5.70;;;9.00;99.90;;;;;;4936567;28;20026;-83
2021/12/14 10:32:04;;;;;;;10.15;5.63;;;9.00;99.90;;;;;;4931567;29;20023;-79
2021/12/14 10:34:38;;;;;;;7.03;5.55;;;9.00;99.90;;;;;;4938557;29;20066;-83
2021/12/14 10:37:15;;;;;;;9.40;6.38;;;9.10;99.90;;;;;;4945975;29;20065;-77
2021/12/14 10:42:53;;;;;;;7.25;5.85;;;9.10;99.90;;;;;;4938686;28;20030;-81
2021/12/14 10:45:24;;;;;;;11.13;7.45;;;9.10;99.90;;;;;;4943162;29;20036;-84
2021/12/14 10:47:50;;;;;;;11.57;8.57;;;9.20;99.90;;;;;;4929069;29;20362;-86
2021/12/14 10:50:23;;;;;;;11.95;7.78;;;9.20;99.90;;;;;;4939603;28;20051;-80
2021/12/14 10:52:49;;;;;;;13.93;8.75;;;9.30;99.90;;;;;;4927238;29;20023;-84
2021/12/14 10:55:25;;;;;;;11.93;8.98;;;9.30;99.90;;;;;;4928549;29;20341;-79
2021/12/14 10:57:52;;;;;;;12.65;8.95;;;9.30;99.90;;;;;;4947219;29;20118;-86
2021/12/14 11:00:29;;;;;;;12.43;9.17;;;9.20;99.90;;;;;;4931382;29;20036;-78
2021/12/14 11:03:02;;;;;;;12.48;9.68;;;9.30;99.90;;;;;;4931592;29;20029;-84
2021/12/14 11:05:31;;;;;;;14.13;10.65;;;9.30;99.90;;;;;;4934416;29;20042;-83
2021/12/14 11:07:57;;;;;;;16.73;11.18;;;9.30;99.90;;;;;;4929852;29;20051;-85
2021/12/14 11:10:36;;;;;;;14.40;10.70;;;9.20;99.90;;;;;;4932503;29;20098;-83
2021/12/14 11:13:10;;;;;;;15.63;10.70;;;9.20;99.90;;;;;;4937670;29;20023;-81
2021/12/14 11:15:49;;;;;;;16.88;11.70;;;9.20;99.90;;;;;;4943324;29;20051;-81
2021/12/14 11:18:19;;;;;;;16.02;9.95;;;9.20;99.90;;;;;;4924512;29;20040;-80
2021/12/14 11:20:50;;;;;;;17.48;12.30;;;9.20;99.90;;;;;;4941717;28;20046;-81
2021/12/14 11:23:23;;;;;;;19.98;13.30;;;9.20;99.90;;;;;;4942588;28;20034;-81
2021/12/14 11:25:51;;;;;;;16.98;12.05;;;9.20;99.90;;;;;;4929517;29;20031;-81
2021/12/14 11:28:31;;;;;;;17.30;11.82;;;9.20;99.90;;;;;;4931477;29;20046;-79
2021/12/14 11:31:04;;;;;;;18.65;13.27;;;9.10;99.90;;;;;;4940266;29;20019;-79
2021/12/14 11:33:41;;;;;;;17.70;12.38;;;9.20;99.90;;;;;;4939486;29;20418;-81
2021/12/14 11:36:33;;;;;;;18.50;12.05;;;9.10;99.90;;;;;;4935695;29;20326;-81
2021/12/14 11:39:27;;;;;;;17.15;11.95;;;9.10;99.90;;;;;;4939872;29;20028;-82
2021/12/14 11:42:20;;;;;;;20.95;12.77;;;9.20;99.90;;;;;;4937556;29;20051;-68
2021/12/14 11:44:54;;;;;;;17.60;11.73;;;9.10;99.90;;;;;;4943743;29;20176;-69
2021/12/14 11:49:57;;;;;;;17.75;12.10;;;9.20;99.90;;;;;;4964065;29;20038;-68
2021/12/14 11:52:37;;;;;;;21.42;14.23;;;9.10;99.90;;;;;;4963462;29;20019;-68
2021/12/14 11:55:18;;;;;;;24.90;14.65;;;9.10;99.90;;;;;;4946763;29;20023;-68
2021/12/14 11:57:45;;;;;;;19.70;13.73;;;9.20;99.90;;;;;;4963780;29;20047;-67
2021/12/14 12:00:20;;;;;;;22.45;14.90;;;9.20;99.90;;;;;;4963575;29;20029;-67
2021/12/14 12:02:45;;;;;;;21.35;13.85;;;9.10;99.90;;;;;;4963501;29;20059;-68
2021/12/14 12:05:21;;;;;;;22.17;13.90;;;9.10;99.90;;;;;;4945584;29;20042;-68
2021/12/14 12:10:39;;;;;;;23.55;15.98;;;9.20;99.90;;;;;;4962804;29;20027;-67
2021/12/14 12:13:05;;;;;;;20.30;13.75;;;9.20;99.90;;;;;;4960584;29;20086;-66
2021/12/14 12:15:30;;;;;;;23.40;15.10;;;9.20;99.90;;;;;;4962504;29;20051;-67
2021/12/14 12:18:00;;;;;;;21.45;14.82;;;9.10;99.90;;;;;;4945582;29;20027;-68
2021/12/14 12:20:37;;;;;;;19.00;13.45;;;9.10;99.90;;;;;;4942121;29;20023;-67
2021/12/14 12:23:12;;;;;;;19.38;12.32;;;9.10;99.90;;;;;;4963660;29;20024;-67
2021/12/14 12:25:58;;;;;;;22.25;14.20;;;9.10;99.90;;;;;;4962814;29;20023;-67
2021/12/14 12:28:26;;;;;;;20.40;13.93;;;9.00;99.90;;;;;;4962401;29;20271;-68
2021/12/14 12:30:52;;;;;;;;;;;9.10;99.90;;;;;;4963297;29;20023;-67
2021/12/14 12:33:28;;;;;;;22.83;14.18;;;9.10;99.90;;;;;;4962302;29;20044;-68
2021/12/14 12:36:15;;;;;;;23.63;15.65;;;9.10;99.90;;;;;;4945414;29;20459;-68
2021/12/14 12:38:50;;;;;;;22.33;14.15;;;9.00;99.90;;;;;;4945398;29;20031;-68
2021/12/14 12:41:41;;;;;;;106.55;60.08;;;9.00;99.90;;;;;;4944956;29;20023;-68
2021/12/14 12:44:10;;;;;;;24.08;14.63;;;9.00;99.90;;;;;;4961858;29;20027;-68
2021/12/14 12:46:48;;;;;;;25.08;16.30;;;8.90;99.90;;;;;;4945045;29;20019;-68
2021/12/14 12:49:16;;;;;;;23.88;15.57;;;8.90;99.90;;;;;;4944736;29;20305;-68
2021/12/14 12:52:07;;;;;;;28.60;17.02;;;8.90;99.90;;;;;;4945688;29;20019;-67
2021/12/14 12:55:02;;;;;;;26.52;16.70;;;9.00;99.90;;;;;;4962473;29;20026;-68
2021/12/14 12:57:35;;;;;;;29.00;16.23;;;9.00;99.90;;;;;;4943014;29;20160;-68
2021/12/14 13:00:24;;;;;;;25.17;15.38;;;8.90;99.90;;;;;;4962533;29;20305;-68
2021/12/14 13:02:59;;;;;;;26.23;16.60;;;8.90;99.90;;;;;;4962661;29;20031;-69
2021/12/14 13:05:36;;;;;;;28.67;16.02;;;8.90;99.90;;;;;;4962047;29;20054;-68
2021/12/14 13:08:02;;;;;;;29.45;16.50;;;8.90;99.90;;;;;;4962598;29;20050;-69
2021/12/14 13:10:42;;;;;;;28.65;17.63;;;8.90;99.90;;;;;;4961611;29;20019;-71
2021/12/14 13:13:15;;;;;;;38.17;17.85;;;8.90;99.90;;;;;;4942134;29;20094;-68
2021/12/14 13:15:58;;;;;;;27.45;17.48;;;8.90;99.90;;;;;;4961915;29;20047;-68
2021/12/14 13:18:57;;;;;;;25.33;17.50;;;8.90;99.90;;;;;;4961909;29;20034;-68
2021/12/14 13:21:32;;;;;;;27.50;17.48;;;8.90;99.90;;;;;;4961709;29;20042;-67
2021/12/14 13:24:16;;;;;;;28.95;17.05;;;8.90;99.90;;;;;;4961432;29;20091;-70
2021/12/14 13:26:50;;;;;;;24.45;15.80;;;8.90;99.90;;;;;;4961970;29;20035;-67
2021/12/14 13:29:21;;;;;;;25.65;16.38;;;8.90;99.90;;;;;;4961516;29;20086;-68
2021/12/14 13:32:10;;;;;;;29.48;17.58;;;8.90;99.90;;;;;;4961945;29;20027;-67
2021/12/14 13:34:41;;;;;;;29.05;17.48;;;8.90;99.90;;;;;;4934264;29;20035;-67
2021/12/14 13:37:09;;;;;;;26.45;17.80;;;8.90;99.90;;;;;;4961192;29;20033;-67
2021/12/14 13:39:37;;;;;;;29.95;17.95;;;8.90;99.90;;;;;;4961791;29;20022;-68
2021/12/14 13:42:12;;;;;;;30.05;20.17;;;8.90;99.90;;;;;;4943561;29;20035;-67
2021/12/14 13:44:46;;;;;;;27.45;17.85;;;8.90;99.90;;;;;;4960946;29;20023;-68
2021/12/14 13:47:13;;;;;;;28.27;17.35;;;8.90;99.90;;;;;;4960990;29;20037;-68
2021/12/14 13:49:42;;;;;;;25.92;16.92;;;8.90;99.90;;;;;;4960421;28;20071;-69
2021/12/14 13:52:12;;;;;;;25.65;16.67;;;8.80;99.90;;;;;;4960644;29;20046;-67
2021/12/14 13:55:11;;;;;;;27.73;18.25;;;8.80;99.90;;;;;;4961375;29;20027;-68
2021/12/14 13:57:42;;;;;;;25.35;17.35;;;8.80;99.90;;;;;;4961265;29;20026;-67